Ariton, AL

4:22 PM CDT on July 10, 2014 (GMT -0500)
Asbury (KALOZARK3) Elev 367 ft | 31.51 °N, 85.55 °W | Change Station

Current weather conditions updated 25 seconds ago

Clear
Clear
86.4 °F
Feels Like 98 °F
N
0.0
Wind Variable Wind from NE
Gusts 1.0 mph

Tomorrow is forecast to be nearly the same temperature as today. Scattered thunderstorms possible.

Today
High -- | Low -- °F
--% Chance of Precip.
Yesterday
High -- | Low -- °F
Precip. -- in
5:45 AM 7:50 PM
Waxing Gibbous, 96% visible
Pressure 30.02 in
Visibility 10.0 miles
Clouds Clear
Heat Index 98 °F
Dew Point 77 °F
Humidity 74%
Rainfall 0.09 in
Snow Depth Not available.
UV 6 out of 12
Pollen 1.20 out of 12
Air Quality Not available.
Flu Activity Sporadic
SPECI KHEY 102116Z AUTO VRB03KT 10SM VCTS CLR 31/22 A3002 RMK AO2 TSE12 T03060217

More Conditions Fewer Conditions

Pressure 30.02 in
Visibility 10.0 miles
Clouds Clear
Heat Index 98 °F
Dew Point 77 °F
Humidity 74%
Rainfall 0.09 in
Snow Depth Not available.
UV 6 out of 12
Pollen 1.20 out of 12
Air Quality Not available.
Flu Activity Sporadic
SPECI KHEY 102116Z AUTO VRB03KT 10SM VCTS CLR 31/22 A3002 RMK AO2 TSE12 T03060217

More Conditions Fewer Conditions

10-Day Weather Forecast

Almanac

Astronomy

Jul. 10, 2014 Rise Set
Actual Time 5:45 AM CDT 7:50 PM CDT
Civil Twilight 5:17 AM CDT 8:18 PM CDT
Nautical Twilight 4:44 AM CDT 8:51 PM CDT
Astronomical Twilight 4:08 AM CDT 9:28 PM CDT
Moon 6:06 PM CDT 3:52 AM CDT
Length of Visible Light 15h 00m
Length of Day
14h 04m
Tomorrow will be 0m 48s shorter.
Waxing Gibbous, 96% of the Moon is Illuminated
Today
Waxing Gibbous
Jul 12
Full
Jul 18
Last Quarter
Jul 26
New
Aug 3
First Quarter

Today's Extremes

State Highs State Lows

Community

WunderPhotos

Upload Photos

1,732,268 photos uploaded!

Nearby

Snow Depth

Station Depth Elevation
No new snow has been reported.

Earthquake Activity

City Distance Mag. Time & Date
No recent earthquake activity has been reported nearby.
Minimum magnitude displayed is 2.5.

Coastal Water Temperatures

Place Temperature
No Stations Reporting

Nearby Weather Stations

Station Location Temp. Heat Index Dew Point Humidity Wind Precip. Elev Updated Type
Asbury, Ozark, AL 86.4 °F 98 °F 77 °F 74% NE  at  0.0 mph 0.00 in / hr 367 ft 4:22 PM CDT Normal
Cotton Creek, Enterprise, AL 83.3 °F 88 °F 71 °F 67% SSE  at  5.0 mph 0.02 in / hr 358 ft 4:22 PM CDT Rapid Fire
Rolling Pines, Enterprise, AL 84.7 °F 97 °F 79 °F 82% South  at  1.7 mph - / hr 256 ft 4:15 PM CDT Normal
Willow Bend, Enterprise, AL 81.0 °F 85 °F 72 °F 75% NNE  at  0.0 mph 0.00 in / hr 353 ft 4:22 PM CDT Rapid Fire
Shiloh Community, Elba, AL 81.6 °F 87 °F 73 °F 75% North  at  0.0 mph 0.00 in / hr 400 ft 4:22 PM CDT Rapid Fire
3 B Farms Goshen Al, Troy, AL 76.3 °F 77 °F 72 °F 88% West  at  1.7 mph - / hr 400 ft 4:10 PM CDT Normal

Show More Stations Show Fewer Stations